Sklinnabanken — LJQM — position and weather

sailwx.info

Track history (hours):
 
Tides and Currents Weather Stations Pressure Air Temp Water Temp Dewpoint Dewpoint Depression Visibility Wind Speed Wind Dir Waves Ship Positions

Sklinnabanken

Last reported at 2015-Mar-21 13:29 UTC. Time now 2015-Mar-28 22:19 UTC.
Position N 70°51' E 023°28'.

Length 28 m; draft 6 m.

Type: Fishing. MMSI: 259648000.

Date/timePositionNaut miles runAvg speedWind from/ knotsBaromVisibWave heightAir tempDewpointWater temp
2015-Mar-21 13:29N 70°51' E 023°28'7 7.3
2015-Mar-21 12:33N 70°45' E 023°32'5 5.4
2015-Mar-21 11:33N 70°40' E 023°40'0 0.0
2015-Mar-21 10:33N 70°40' E 023°40'0 0.0
2015-Mar-21 09:33N 70°40' E 023°40'0 0.0
2015-Mar-21 08:33N 70°40' E 023°40'0 0.0
2015-Mar-21 07:33N 70°40' E 023°40'0 0.0
2015-Mar-21 06:33N 70°40' E 023°40'0 0.0
2015-Mar-21 05:33N 70°40' E 023°40'0 0.0
2015-Mar-21 04:33N 70°40' E 023°40'0 0.0
2015-Mar-21 03:33N 70°40' E 023°40'0 0.0
2015-Mar-21 02:33N 70°40' E 023°40'0 0.0
2015-Mar-21 01:33N 70°40' E 023°40'0 0.0
2015-Mar-21 00:33N 70°40' E 023°40'0 0.0
2015-Mar-20 23:33N 70°40' E 023°40'0 0.0
2015-Mar-20 22:33N 70°40' E 023°40'3 2.8
2015-Mar-20 21:33N 70°39' E 023°33'8 7.6
2015-Mar-20 20:33N 70°35' E 023°12'8 7.7
2015-Mar-20 19:33N 70°31' E 022°55'8 7.8
2015-Mar-20 18:32N 70°29' E 022°32'80 3.5
2015-Mar-19 19:28N 69°47' E 019°10'7 7.6
2015-Mar-19 18:33N 69°41' E 019°01'9 8.9
2015-Mar-19 17:32N 69°34' E 018°45'  
Track history (hours):
 
Tides and Currents Weather Stations Pressure Air Temp Water Temp Dewpoint Dewpoint Depression Visibility Wind Speed Wind Dir Waves Ship Positions

Sklinnabanken

Last reported at 2015-Mar-21 13:29 UTC. Time now 2015-Mar-28 22:19 UTC.
Position N 70°51' E 023°28'.

Length 28 m; draft 6 m.

Type: Fishing. MMSI: 259648000.

Date/timePositionNaut miles runAvg speedWind from/ knotsBaromVisibWave heightAir tempDewpointWater temp
2015-Mar-21 13:29N 70°51' E 023°28'7 7.3
2015-Mar-21 12:33N 70°45' E 023°32'5 5.4
2015-Mar-21 11:33N 70°40' E 023°40'0 0.0
2015-Mar-21 10:33N 70°40' E 023°40'0 0.0
2015-Mar-21 09:33N 70°40' E 023°40'0 0.0
2015-Mar-21 08:33N 70°40' E 023°40'0 0.0
2015-Mar-21 07:33N 70°40' E 023°40'0 0.0
2015-Mar-21 06:33N 70°40' E 023°40'0 0.0
2015-Mar-21 05:33N 70°40' E 023°40'0 0.0
2015-Mar-21 04:33N 70°40' E 023°40'0 0.0
2015-Mar-21 03:33N 70°40' E 023°40'0 0.0
2015-Mar-21 02:33N 70°40' E 023°40'0 0.0
2015-Mar-21 01:33N 70°40' E 023°40'0 0.0
2015-Mar-21 00:33N 70°40' E 023°40'0 0.0
2015-Mar-20 23:33N 70°40' E 023°40'0 0.0
2015-Mar-20 22:33N 70°40' E 023°40'3 2.8
2015-Mar-20 21:33N 70°39' E 023°33'8 7.6
2015-Mar-20 20:33N 70°35' E 023°12'8 7.7
2015-Mar-20 19:33N 70°31' E 022°55'8 7.8
2015-Mar-20 18:32N 70°29' E 022°32'80 3.5
2015-Mar-19 19:28N 69°47' E 019°10'7 7.6
2015-Mar-19 18:33N 69°41' E 019°01'9 8.9
2015-Mar-19 17:32N 69°34' E 018°45'  

Dump ship's entire track history